createdAt,value
2023-12-09T00:05:47.788Z,19.96
2023-12-09T00:20:49.987Z,19.90
2023-12-09T00:35:51.724Z,19.84
2023-12-09T00:50:53.492Z,19.79
2023-12-09T01:05:55.373Z,19.72
2023-12-09T01:20:57.122Z,19.68
2023-12-09T01:35:58.867Z,19.64
2023-12-09T01:51:02.872Z,19.59
2023-12-09T02:06:04.843Z,19.62
2023-12-09T02:21:06.841Z,19.76
2023-12-09T02:36:10.392Z,19.87
2023-12-09T02:51:12.234Z,19.94
2023-12-09T03:06:13.987Z,19.99
2023-12-09T03:21:17.239Z,20.06
2023-12-09T03:36:19.138Z,20.12
2023-12-09T03:51:23.808Z,20.17
2023-12-09T04:06:25.499Z,20.19
2023-12-09T04:21:27.384Z,20.23
2023-12-09T04:36:29.086Z,20.28
2023-12-09T04:51:30.886Z,20.32
2023-12-09T05:06:32.645Z,20.34
2023-12-09T05:21:36.038Z,20.36
2023-12-09T05:36:38.660Z,20.40
2023-12-09T05:51:42.832Z,20.42
2023-12-09T06:06:44.780Z,20.46
2023-12-09T06:21:46.524Z,20.45
2023-12-09T06:36:48.714Z,20.45
2023-12-09T06:51:50.686Z,20.44
2023-12-09T07:06:52.546Z,20.44
2023-12-09T07:21:54.357Z,20.31
2023-12-09T07:36:56.093Z,20.41
2023-12-09T07:51:57.854Z,20.42
2023-12-09T08:06:59.549Z,20.43
2023-12-09T08:22:01.300Z,20.44
2023-12-09T08:37:03.037Z,20.45
2023-12-09T08:52:05.695Z,20.53
2023-12-09T09:07:07.482Z,20.58
2023-12-09T09:22:09.316Z,20.62
2023-12-09T09:37:11.494Z,20.70
2023-12-09T09:52:16.136Z,20.73
2023-12-09T10:07:18.240Z,20.73
2023-12-09T10:22:20.258Z,20.71
2023-12-09T10:37:22.342Z,20.70
2023-12-09T10:52:24.426Z,20.71
2023-12-09T11:07:26.514Z,20.72
2023-12-09T11:22:29.937Z,20.71
2023-12-09T11:37:32.736Z,20.71
2023-12-09T11:52:35.240Z,20.75
2023-12-09T12:07:37.517Z,20.74
2023-12-09T12:22:42.089Z,20.75
2023-12-09T12:37:43.959Z,20.74
2023-12-09T12:52:45.986Z,20.73
2023-12-09T13:07:47.654Z,20.72
2023-12-09T13:22:49.427Z,20.72
2023-12-09T13:37:51.314Z,20.72
2023-12-09T13:52:52.994Z,20.70
2023-12-09T14:07:54.663Z,20.71
2023-12-09T14:22:56.343Z,20.70
2023-12-09T14:37:59.161Z,20.69
2023-12-09T14:53:01.959Z,20.77
2023-12-09T15:08:04.963Z,20.84
2023-12-09T15:23:07.469Z,20.93
2023-12-09T15:38:10.665Z,21.01
2023-12-09T15:53:12.725Z,21.07
2023-12-09T16:08:14.392Z,21.09
2023-12-09T16:23:16.892Z,21.13
2023-12-09T16:38:19.394Z,21.18
2023-12-09T16:53:22.175Z,21.09
2023-12-09T17:08:24.019Z,21.06
2023-12-09T17:23:25.721Z,21.04
2023-12-09T17:38:28.235Z,21.01
2023-12-09T17:53:30.734Z,21.00
2023-12-09T18:08:33.284Z,20.99
2023-12-09T18:23:35.890Z,20.95
2023-12-09T18:38:38.430Z,20.94
2023-12-09T18:53:40.921Z,20.94
2023-12-09T19:08:43.422Z,20.92
2023-12-09T19:23:45.983Z,20.92
2023-12-09T19:38:48.497Z,20.90
2023-12-09T19:53:50.993Z,20.89
2023-12-09T20:08:53.505Z,20.88
2023-12-09T20:23:56.032Z,20.85
2023-12-09T20:38:57.764Z,20.80
2023-12-09T20:53:59.628Z,20.76
2023-12-09T21:09:02.288Z,20.71
2023-12-09T21:24:06.195Z,20.60
2023-12-09T21:39:08.806Z,20.56
2023-12-09T21:54:11.730Z,20.50
2023-12-09T22:09:14.012Z,20.45
2023-12-09T22:24:15.743Z,20.39
2023-12-09T22:39:18.468Z,20.36
2023-12-09T22:54:22.037Z,20.29
2023-12-09T23:09:23.940Z,20.32
2023-12-09T23:24:26.570Z,20.38
2023-12-09T23:39:28.254Z,20.41
2023-12-09T23:54:29.966Z,20.43
